sensor_id;sensor_type;location;lat;lon;timestamp;pressure;altitude;pressure_sealevel;temperature;humidity
44144;BME280;68165;51.920;4.492;2023-04-26T00:00:44;66844.66;;;8.90;73.53
44144;BME280;68165;51.920;4.492;2023-04-26T00:03:10;66851.34;;;8.96;73.64
44144;BME280;68165;51.920;4.492;2023-04-26T00:05:37;66851.72;;;8.94;73.72
44144;BME280;68165;51.920;4.492;2023-04-26T00:08:02;66854.13;;;8.98;73.48
44144;BME280;68165;51.920;4.492;2023-04-26T00:10:28;66849.66;;;8.94;73.36
44144;BME280;68165;51.920;4.492;2023-04-26T00:12:54;66848.56;;;8.93;73.21
44144;BME280;68165;51.920;4.492;2023-04-26T00:15:20;66844.84;;;8.92;74.04
44144;BME280;68165;51.920;4.492;2023-04-26T00:17:45;66850.44;;;8.90;74.52
44144;BME280;68165;51.920;4.492;2023-04-26T00:20:11;66847.63;;;8.88;75.04
44144;BME280;68165;51.920;4.492;2023-04-26T00:22:38;66841.69;;;8.85;75.68
44144;BME280;68165;51.920;4.492;2023-04-26T00:25:04;66836.84;;;8.83;76.16
44144;BME280;68165;51.920;4.492;2023-04-26T00:27:29;66833.91;;;8.78;76.44
44144;BME280;68165;51.920;4.492;2023-04-26T00:29:55;66831.28;;;8.78;77.16
44144;BME280;68165;51.920;4.492;2023-04-26T00:32:20;66838.19;;;8.79;77.44
44144;BME280;68165;51.920;4.492;2023-04-26T00:34:45;66826.84;;;8.74;77.31
44144;BME280;68165;51.920;4.492;2023-04-26T00:37:11;66819.59;;;8.67;77.73
44144;BME280;68165;51.920;4.492;2023-04-26T00:39:37;66825.38;;;8.68;77.99
44144;BME280;68165;51.920;4.492;2023-04-26T00:42:02;66824.25;;;8.67;78.05
44144;BME280;68165;51.920;4.492;2023-04-26T00:44:28;66820.16;;;8.68;78.65
44144;BME280;68165;51.920;4.492;2023-04-26T00:46:53;66818.31;;;8.64;78.72
44144;BME280;68165;51.920;4.492;2023-04-26T00:49:22;66820.94;;;8.64;78.34
44144;BME280;68165;51.920;4.492;2023-04-26T00:51:49;66822.59;;;8.65;78.67
44144;BME280;68165;51.920;4.492;2023-04-26T00:54:16;66815.72;;;8.64;78.55
44144;BME280;68165;51.920;4.492;2023-04-26T00:56:42;66817.91;;;8.66;78.65
44144;BME280;68165;51.920;4.492;2023-04-26T00:59:08;66823.31;;;8.68;78.69
44144;BME280;68165;51.920;4.492;2023-04-26T01:01:34;66819.03;;;8.67;78.54
44144;BME280;68165;51.920;4.492;2023-04-26T01:04:00;66817.03;;;8.60;78.52
44144;BME280;68165;51.920;4.492;2023-04-26T01:06:32;66817.91;;;8.66;78.93
44144;BME280;68165;51.920;4.492;2023-04-26T01:08:59;66819.59;;;8.67;78.39
44144;BME280;68165;51.920;4.492;2023-04-26T01:11:26;66825.38;;;8.68;78.20
44144;BME280;68165;51.920;4.492;2023-04-26T01:13:52;66821.28;;;8.69;78.50
44144;BME280;68165;51.920;4.492;2023-04-26T01:16:18;66822.75;;;8.68;79.05
44144;BME280;68165;51.920;4.492;2023-04-26T01:18:52;66822.38;;;8.70;79.57
44144;BME280;68165;51.920;4.492;2023-04-26T01:21:24;66815.72;;;8.64;79.89
44144;BME280;68165;51.920;4.492;2023-04-26T01:23:50;66819.81;;;8.63;80.34
44144;BME280;68165;51.920;4.492;2023-04-26T01:26:17;66809.56;;;8.58;80.20
44144;BME280;68165;51.920;4.492;2023-04-26T01:28:42;66806.78;;;8.55;80.33
44144;BME280;68165;51.920;4.492;2023-04-26T01:31:08;66806.78;;;8.55;80.25
44144;BME280;68165;51.920;4.492;2023-04-26T01:33:34;66814.78;;;8.58;80.55
44144;BME280;68165;51.920;4.492;2023-04-26T01:35:59;66807.91;;;8.56;80.09
44144;BME280;68165;51.920;4.492;2023-04-26T01:38:25;66809.41;;;8.55;79.84
44144;BME280;68165;51.920;4.492;2023-04-26T01:40:50;66807.56;;;8.51;80.17
44144;BME280;68165;51.920;4.492;2023-04-26T01:43:15;66807.56;;;8.51;79.70
44144;BME280;68165;51.920;4.492;2023-04-26T01:45:46;66794.88;;;8.49;79.02
44144;BME280;68165;51.920;4.492;2023-04-26T01:48:12;66806.59;;;8.53;77.75
44144;BME280;68165;51.920;4.492;2023-04-26T01:50:37;66804.56;;;8.53;77.58
44144;BME280;68165;51.920;4.492;2023-04-26T01:53:03;66802.72;;;8.49;77.33
44144;BME280;68165;51.920;4.492;2023-04-26T01:55:29;66807.56;;;8.51;77.15
44144;BME280;68165;51.920;4.492;2023-04-26T01:57:55;66802.16;;;8.49;76.83
44144;BME280;68165;51.920;4.492;2023-04-26T02:00:20;66795.66;;;8.45;76.32
44144;BME280;68165;51.920;4.492;2023-04-26T02:02:46;66802.91;;;8.52;75.69
44144;BME280;68165;51.920;4.492;2023-04-26T02:05:11;66799.56;;;8.49;76.31
44144;BME280;68165;51.920;4.492;2023-04-26T02:07:37;66799.38;;;8.46;77.82
44144;BME280;68165;51.920;4.492;2023-04-26T02:10:03;66787.31;;;8.38;78.97
44144;BME280;68165;51.920;4.492;2023-04-26T02:12:28;66785.47;;;8.34;80.24
44144;BME280;68165;51.920;4.492;2023-04-26T02:14:53;66778.38;;;8.30;80.83
44144;BME280;68165;51.920;4.492;2023-04-26T02:17:19;66784.34;;;8.33;81.32
44144;BME280;68165;51.920;4.492;2023-04-26T02:19:45;66782.84;;;8.34;81.82
44144;BME280;68165;51.920;4.492;2023-04-26T02:22:10;66794.91;;;8.42;82.00
44144;BME280;68165;51.920;4.492;2023-04-26T02:24:37;66798.28;;;8.45;82.22
44144;BME280;68165;51.920;4.492;2023-04-26T02:27:02;66810.53;;;8.56;82.53
44144;BME280;68165;51.920;4.492;2023-04-26T02:29:29;66812.34;;;8.60;81.44
44144;BME280;68165;51.920;4.492;2023-04-26T02:31:55;66817.75;;;8.63;80.22
44144;BME280;68165;51.920;4.492;2023-04-26T02:34:20;66824.81;;;8.67;79.79
44144;BME280;68165;51.920;4.492;2023-04-26T02:36:46;66826.84;;;8.74;79.50
44144;BME280;68165;51.920;4.492;2023-04-26T02:39:12;66831.28;;;8.78;79.62
44144;BME280;68165;51.920;4.492;2023-04-26T02:41:38;66824.59;;;8.72;80.16
44144;BME280;68165;51.920;4.492;2023-04-26T02:44:03;66825.16;;;8.72;80.65
44144;BME280;68165;51.920;4.492;2023-04-26T02:46:29;66826.28;;;8.73;81.12
44144;BME280;68165;51.920;4.492;2023-04-26T02:48:54;66829.81;;;8.72;81.44
44144;BME280;68165;51.920;4.492;2023-04-26T02:51:20;66821.66;;;8.67;81.75
44144;BME280;68165;51.920;4.492;2023-04-26T02:53:45;66821.28;;;8.69;81.81
44144;BME280;68165;51.920;4.492;2023-04-26T02:56:10;66824.81;;;8.67;81.99
44144;BME280;68165;51.920;4.492;2023-04-26T02:58:36;66826.50;;;8.69;82.00
44144;BME280;68165;51.920;4.492;2023-04-26T03:01:01;66825.00;;;8.70;82.08
44144;BME280;68165;51.920;4.492;2023-04-26T03:03:28;66830.00;;;8.74;82.31
44144;BME280;68165;51.920;4.492;2023-04-26T03:05:54;66824.44;;;8.69;81.90
44144;BME280;68165;51.920;4.492;2023-04-26T03:08:20;66821.66;;;8.67;80.82
44144;BME280;68165;51.920;4.492;2023-04-26T03:10:45;66819.03;;;8.67;80.10
44144;BME280;68165;51.920;4.492;2023-04-26T03:13:11;66818.69;;;8.62;79.82
44144;BME280;68165;51.920;4.492;2023-04-26T03:15:36;66818.69;;;8.62;79.61
44144;BME280;68165;51.920;4.492;2023-04-26T03:18:01;66824.81;;;8.67;78.71
44144;BME280;68165;51.920;4.492;2023-04-26T03:20:27;66820.72;;;8.68;78.30
44144;BME280;68165;51.920;4.492;2023-04-26T03:22:52;66833.34;;;8.77;77.74
44144;BME280;68165;51.920;4.492;2023-04-26T03:25:17;66831.28;;;8.78;76.34
44144;BME280;68165;51.920;4.492;2023-04-26T03:27:43;66829.44;;;8.74;75.11
44144;BME280;68165;51.920;4.492;2023-04-26T03:30:08;66831.84;;;8.78;74.95
44144;BME280;68165;51.920;4.492;2023-04-26T03:32:33;66832.97;;;8.79;74.50
44144;BME280;68165;51.920;4.492;2023-04-26T03:34:59;66833.53;;;8.80;73.98
44144;BME280;68165;51.920;4.492;2023-04-26T03:37:24;66836.50;;;8.78;74.12
44144;BME280;68165;51.920;4.492;2023-04-26T03:39:50;66819.59;;;8.67;74.05
44144;BME280;68165;51.920;4.492;2023-04-26T03:42:18;66826.28;;;8.73;73.89
44144;BME280;68165;51.920;4.492;2023-04-26T03:44:44;66823.88;;;8.69;73.56
44144;BME280;68165;51.920;4.492;2023-04-26T03:47:09;66831.69;;;8.76;73.23
44144;BME280;68165;51.920;4.492;2023-04-26T03:49:35;66834.63;;;8.81;72.76
44144;BME280;68165;51.920;4.492;2023-04-26T03:52:00;66836.50;;;8.78;72.72
44144;BME280;68165;51.920;4.492;2023-04-26T03:54:25;66840.03;;;8.83;72.50
44144;BME280;68165;51.920;4.492;2023-04-26T03:56:51;66837.25;;;8.81;72.19
44144;BME280;68165;51.920;4.492;2023-04-26T03:59:17;66837.25;;;8.81;72.20
44144;BME280;68165;51.920;4.492;2023-04-26T04:01:43;66827.94;;;8.75;71.82
44144;BME280;68165;51.920;4.492;2023-04-26T04:04:08;66828.16;;;8.70;71.90
44144;BME280;68165;51.920;4.492;2023-04-26T04:06:34;66826.50;;;8.69;71.87
44144;BME280;68165;51.920;4.492;2023-04-26T04:08:59;66827.44;;;8.67;71.87
44144;BME280;68165;51.920;4.492;2023-04-26T04:11:24;66822.22;;;8.67;72.83
44144;BME280;68165;51.920;4.492;2023-04-26T04:13:50;66817.56;;;8.60;74.61
44144;BME280;68165;51.920;4.492;2023-04-26T04:16:16;66818.31;;;8.64;76.70
44144;BME280;68165;51.920;4.492;2023-04-26T04:18:41;66814.97;;;8.60;78.02
44144;BME280;68165;51.920;4.492;2023-04-26T04:21:06;66814.97;;;8.60;78.70
44144;BME280;68165;51.920;4.492;2023-04-26T04:23:31;66812.34;;;8.60;77.67
44144;BME280;68165;51.920;4.492;2023-04-26T04:25:57;66818.13;;;8.61;77.74
44144;BME280;68165;51.920;4.492;2023-04-26T04:28:22;66823.16;;;8.66;76.99
44144;BME280;68165;51.920;4.492;2023-04-26T04:30:47;66821.44;;;8.71;76.19
44144;BME280;68165;51.920;4.492;2023-04-26T04:33:13;66832.22;;;8.76;75.37
44144;BME280;68165;51.920;4.492;2023-04-26T04:35:40;66836.84;;;8.83;74.89
44144;BME280;68165;51.920;4.492;2023-04-26T04:38:05;66849.88;;;8.90;74.21
44144;BME280;68165;51.920;4.492;2023-04-26T04:40:31;66848.38;;;8.91;73.50
44144;BME280;68165;51.920;4.492;2023-04-26T04:42:56;66848.56;;;8.93;72.96
44144;BME280;68165;51.920;4.492;2023-04-26T04:45:22;66861.00;;;9.00;71.86
44144;BME280;68165;51.920;4.492;2023-04-26T04:47:47;66859.50;;;9.01;71.60
44144;BME280;68165;51.920;4.492;2023-04-26T04:50:13;66861.56;;;9.00;71.26
44144;BME280;68165;51.920;4.492;2023-04-26T04:52:39;66861.75;;;9.03;70.61
44144;BME280;68165;51.920;4.492;2023-04-26T04:55:06;66846.50;;;8.94;69.60
44144;BME280;68165;51.920;4.492;2023-04-26T04:57:31;66851.34;;;8.96;69.88
44144;BME280;68165;51.920;4.492;2023-04-26T04:59:57;66855.06;;;8.97;68.92
44144;BME280;68165;51.920;4.492;2023-04-26T05:02:22;66855.44;;;8.95;68.75
44144;BME280;68165;51.920;4.492;2023-04-26T05:04:48;66856.19;;;8.98;68.81
44144;BME280;68165;51.920;4.492;2023-04-26T05:07:13;66857.31;;;8.99;69.17
44144;BME280;68165;51.920;4.492;2023-04-26T05:09:40;66860.63;;;9.02;68.59
44144;BME280;68165;51.920;4.492;2023-04-26T05:12:06;66871.22;;;9.12;68.50
44144;BME280;68165;51.920;4.492;2023-04-26T05:14:31;66871.38;;;9.14;68.34
44144;BME280;68165;51.920;4.492;2023-04-26T05:16:57;66882.94;;;9.22;68.26
44144;BME280;68165;51.920;4.492;2023-04-26T05:19:22;66898.91;;;9.34;67.40
44144;BME280;68165;51.920;4.492;2023-04-26T05:21:47;66898.84;;;9.41;67.29
44144;BME280;68165;51.920;4.492;2023-04-26T05:24:13;66910.38;;;9.50;66.04
44144;BME280;68165;51.920;4.492;2023-04-26T05:26:38;66928.44;;;9.61;65.41
44144;BME280;68165;51.920;4.492;2023-04-26T05:29:04;66952.03;;;9.85;63.80
44144;BME280;68165;51.920;4.492;2023-04-26T05:31:29;66981.19;;;10.14;62.77
44144;BME280;68165;51.920;4.492;2023-04-26T05:33:54;67012.81;;;10.40;61.43
44144;BME280;68165;51.920;4.492;2023-04-26T05:36:20;67029.72;;;10.58;59.86
44144;BME280;68165;51.920;4.492;2023-04-26T05:38:45;67047.00;;;10.74;59.02
44144;BME280;68165;51.920;4.492;2023-04-26T05:41:10;67061.34;;;10.84;58.57
44144;BME280;68165;51.920;4.492;2023-04-26T05:43:36;67066.53;;;10.91;57.87
44144;BME280;68165;51.920;4.492;2023-04-26T05:46:02;67067.28;;;10.94;57.86
44144;BME280;68165;51.920;4.492;2023-04-26T05:48:27;67085.50;;;11.09;57.12
44144;BME280;68165;51.920;4.492;2023-04-26T05:50:54;67100.97;;;11.20;56.99
44144;BME280;68165;51.920;4.492;2023-04-26T05:53:19;67093.31;;;11.16;55.69
44144;BME280;68165;51.920;4.492;2023-04-26T05:55:44;67097.63;;;11.17;54.95
44144;BME280;68165;51.920;4.492;2023-04-26T05:58:10;67093.88;;;11.16;54.44
44144;BME280;68165;51.920;4.492;2023-04-26T06:00:36;67103.75;;;11.23;54.37
44144;BME280;68165;51.920;4.492;2023-04-26T06:03:01;67107.28;;;11.28;54.00
44144;BME280;68165;51.920;4.492;2023-04-26T06:05:27;67113.81;;;11.32;53.77
44144;BME280;68165;51.920;4.492;2023-04-26T06:07:52;67107.03;;;11.33;53.64
44144;BME280;68165;51.920;4.492;2023-04-26T06:10:18;67114.91;;;11.33;52.68
44144;BME280;68165;51.920;4.492;2023-04-26T06:12:44;67108.38;;;11.29;52.55
44144;BME280;68165;51.920;4.492;2023-04-26T06:15:10;67112.91;;;11.26;52.63
44144;BME280;68165;51.920;4.492;2023-04-26T06:17:36;67107.28;;;11.28;52.07
44144;BME280;68165;51.920;4.492;2023-04-26T06:20:01;67114.53;;;11.35;52.55
44144;BME280;68165;51.920;4.492;2023-04-26T06:22:27;67119.00;;;11.39;52.58
44144;BME280;68165;51.920;4.492;2023-04-26T06:24:52;67127.94;;;11.47;52.67
44144;BME280;68165;51.920;4.492;2023-04-26T06:27:17;67138.53;;;11.57;52.12
44144;BME280;68165;51.920;4.492;2023-04-26T06:29:43;67141.88;;;11.60;52.51
44144;BME280;68165;51.920;4.492;2023-04-26T06:32:09;67145.22;;;11.63;52.55
44144;BME280;68165;51.920;4.492;2023-04-26T06:34:34;67147.47;;;11.65;52.28
44144;BME280;68165;51.920;4.492;2023-04-26T06:37:01;67162.25;;;11.73;52.34
44144;BME280;68165;51.920;4.492;2023-04-26T06:39:26;67161.44;;;11.77;52.67
44144;BME280;68165;51.920;4.492;2023-04-26T06:41:51;67166.31;;;11.79;52.36
44144;BME280;68165;51.920;4.492;2023-04-26T06:44:17;67170.78;;;11.83;52.64
44144;BME280;68165;51.920;4.492;2023-04-26T06:46:42;67174.13;;;11.86;52.43
44144;BME280;68165;51.920;4.492;2023-04-26T06:49:08;67188.06;;;11.99;52.16
44144;BME280;68165;51.920;4.492;2023-04-26T06:51:34;67200.88;;;12.18;52.01
44144;BME280;68165;51.920;4.492;2023-04-26T06:53:59;67217.13;;;12.25;51.47
44144;BME280;68165;51.920;4.492;2023-04-26T06:56:25;67231.09;;;12.38;50.74
44144;BME280;68165;51.920;4.492;2023-04-26T06:59:01;67227.03;;;12.32;50.47
44144;BME280;68165;51.920;4.492;2023-04-26T07:01:28;67202.53;;;12.19;50.30
44144;BME280;68165;51.920;4.492;2023-04-26T07:03:56;67199.41;;;12.12;50.61
44144;BME280;68165;51.920;4.492;2023-04-26T07:06:23;67203.00;;;12.10;51.05
44144;BME280;68165;51.920;4.492;2023-04-26T07:08:48;67196.47;;;12.07;51.16
44144;BME280;68165;51.920;4.492;2023-04-26T07:11:14;67203.72;;;12.13;51.01
44144;BME280;68165;51.920;4.492;2023-04-26T07:13:39;67230.91;;;12.36;49.75
44144;BME280;68165;51.920;4.492;2023-04-26T07:16:05;67230.69;;;12.40;49.63
44144;BME280;68165;51.920;4.492;2023-04-26T07:18:30;67245.78;;;12.54;49.00
44144;BME280;68165;51.920;4.492;2023-04-26T07:20:56;67260.31;;;12.67;48.35
44144;BME280;68165;51.920;4.492;2023-04-26T07:23:22;67265.34;;;12.72;48.04
44144;BME280;68165;51.920;4.492;2023-04-26T07:25:48;67273.88;;;12.82;47.69
44144;BME280;68165;51.920;4.492;2023-04-26T07:28:13;67295.50;;;12.99;47.05
44144;BME280;68165;51.920;4.492;2023-04-26T07:30:39;67314.56;;;13.16;46.65
44144;BME280;68165;51.920;4.492;2023-04-26T07:33:04;67333.56;;;13.33;46.00
44144;BME280;68165;51.920;4.492;2023-04-26T07:35:30;67343.84;;;13.38;45.75
44144;BME280;68165;51.920;4.492;2023-04-26T07:37:55;67347.38;;;13.43;45.74
44144;BME280;68165;51.920;4.492;2023-04-26T07:40:21;67350.31;;;13.48;45.42
44144;BME280;68165;51.920;4.492;2023-04-26T07:42:48;67369.31;;;13.66;45.48
44144;BME280;68165;51.920;4.492;2023-04-26T07:45:14;67395.06;;;13.89;44.92
44144;BME280;68165;51.920;4.492;2023-04-26T07:47:39;67421.75;;;14.11;44.16
44144;BME280;68165;51.920;4.492;2023-04-26T07:50:05;67427.50;;;14.18;44.13
44144;BME280;68165;51.920;4.492;2023-04-26T07:52:31;67427.66;;;14.21;43.86
44144;BME280;68165;51.920;4.492;2023-04-26T07:54:56;67436.13;;;14.21;43.61
44144;BME280;68165;51.920;4.492;2023-04-26T07:57:22;67421.91;;;14.13;43.22
44144;BME280;68165;51.920;4.492;2023-04-26T07:59:47;67415.19;;;14.07;42.88
44144;BME280;68165;51.920;4.492;2023-04-26T08:02:12;67387.25;;;13.82;43.75
44144;BME280;68165;51.920;4.492;2023-04-26T08:04:38;67372.53;;;13.66;44.15
44144;BME280;68165;51.920;4.492;2023-04-26T08:07:03;67365.44;;;13.62;44.94
44144;BME280;68165;51.920;4.492;2023-04-26T08:09:29;67356.72;;;13.49;45.38
44144;BME280;68165;51.920;4.492;2023-04-26T08:11:55;67351.13;;;13.44;45.98
44144;BME280;68165;51.920;4.492;2023-04-26T08:14:20;67335.38;;;13.37;46.01
44144;BME280;68165;51.920;4.492;2023-04-26T08:16:46;67332.25;;;13.30;46.47
44144;BME280;68165;51.920;4.492;2023-04-26T08:19:11;67333.00;;;13.33;46.09
44144;BME280;68165;51.920;4.492;2023-04-26T08:21:36;67340.47;;;13.35;45.83
44144;BME280;68165;51.920;4.492;2023-04-26T08:24:02;67341.78;;;13.38;45.87
44144;BME280;68165;51.920;4.492;2023-04-26T08:26:28;67342.50;;;13.41;45.53
44144;BME280;68165;51.920;4.492;2023-04-26T08:28:53;67344.72;;;13.43;45.52
44144;BME280;68165;51.920;4.492;2023-04-26T08:31:19;67348.09;;;13.46;45.24
44144;BME280;68165;51.920;4.492;2023-04-26T08:33:47;67348.31;;;13.42;45.18
44144;BME280;68165;51.920;4.492;2023-04-26T08:36:12;67352.94;;;13.48;44.98
44144;BME280;68165;51.920;4.492;2023-04-26T08:38:37;67360.22;;;13.55;44.68
44144;BME280;68165;51.920;4.492;2023-04-26T08:41:04;67375.31;;;13.69;44.08
44144;BME280;68165;51.920;4.492;2023-04-26T08:43:29;67371.41;;;13.65;43.63
44144;BME280;68165;51.920;4.492;2023-04-26T08:45:57;67357.75;;;13.58;43.50
44144;BME280;68165;51.920;4.492;2023-04-26T08:48:23;67358.16;;;13.56;43.17
44144;BME280;68165;51.920;4.492;2023-04-26T08:50:51;67366.94;;;13.61;43.10
44144;BME280;68165;51.920;4.492;2023-04-26T08:53:16;67357.03;;;13.55;43.06
44144;BME280;68165;51.920;4.492;2023-04-26T08:55:46;67366.94;;;13.61;43.04
44144;BME280;68165;51.920;4.492;2023-04-26T08:58:11;67362.06;;;13.59;43.05
44144;BME280;68165;51.920;4.492;2023-04-26T09:00:37;67350.88;;;13.49;43.28
44144;BME280;68165;51.920;4.492;2023-04-26T09:03:02;67344.56;;;13.41;43.09
44144;BME280;68165;51.920;4.492;2023-04-26T09:05:28;67323.66;;;13.27;43.16
44144;BME280;68165;51.920;4.492;2023-04-26T09:07:56;67321.09;;;13.20;43.10
44144;BME280;68165;51.920;4.492;2023-04-26T09:10:21;67310.44;;;13.10;43.57
44144;BME280;68165;51.920;4.492;2023-04-26T09:12:54;67301.66;;;13.04;43.53
44144;BME280;68165;51.920;4.492;2023-04-26T09:15:21;67289.78;;;12.91;43.31
44144;BME280;68165;51.920;4.492;2023-04-26T09:17:47;67285.84;;;12.88;43.23
44144;BME280;68165;51.920;4.492;2023-04-26T09:20:28;67285.44;;;12.90;43.44
44144;BME280;68165;51.920;4.492;2023-04-26T09:23:04;67286.00;;;12.90;43.40
44144;BME280;68165;51.920;4.492;2023-04-26T09:25:31;67296.63;;;13.00;43.18
44144;BME280;68165;51.920;4.492;2023-04-26T09:27:57;67314.56;;;13.16;42.91
44144;BME280;68165;51.920;4.492;2023-04-26T09:30:24;67327.97;;;13.28;42.32
44144;BME280;68165;51.920;4.492;2023-04-26T09:32:58;67352.38;;;13.48;42.58
44144;BME280;68165;51.920;4.492;2023-04-26T09:35:31;67362.63;;;13.60;42.03
44144;BME280;68165;51.920;4.492;2023-04-26T09:38:12;67389.88;;;13.82;41.87
44144;BME280;68165;51.920;4.492;2023-04-26T09:40:49;67395.06;;;13.89;42.32
44144;BME280;68165;51.920;4.492;2023-04-26T09:43:19;67398.81;;;13.90;42.66
44144;BME280;68165;51.920;4.492;2023-04-26T09:48:22;67417.81;;;14.07;43.04
44144;BME280;68165;51.920;4.492;2023-04-26T09:50:52;67433.34;;;14.19;42.89
44144;BME280;68165;51.920;4.492;2023-04-26T09:53:31;67443.16;;;14.32;43.31
44144;BME280;68165;51.920;4.492;2023-04-26T09:56:07;67455.91;;;14.42;44.14
44144;BME280;68165;51.920;4.492;2023-04-26T09:58:35;67470.44;;;14.55;44.41
44144;BME280;68165;51.920;4.492;2023-04-26T10:01:02;67471.88;;;14.61;44.66
44144;BME280;68165;51.920;4.492;2023-04-26T10:03:28;67485.00;;;14.68;45.25
44144;BME280;68165;51.920;4.492;2023-04-26T10:05:53;67478.47;;;14.64;45.19
44144;BME280;68165;51.920;4.492;2023-04-26T10:08:21;67476.78;;;14.63;45.04
44144;BME280;68165;51.920;4.492;2023-04-26T10:10:46;67476.22;;;14.62;45.03
44144;BME280;68165;51.920;4.492;2023-04-26T10:13:12;67484.44;;;14.67;44.65
44144;BME280;68165;51.920;4.492;2023-04-26T10:15:40;67489.47;;;14.72;44.46
44144;BME280;68165;51.920;4.492;2023-04-26T10:18:07;67496.19;;;14.78;44.38
44144;BME280;68165;51.920;4.492;2023-04-26T10:20:34;67496.19;;;14.78;43.92
44144;BME280;68165;51.920;4.492;2023-04-26T10:23:04;67497.50;;;14.82;43.86
44144;BME280;68165;51.920;4.492;2023-04-26T10:25:35;67516.34;;;14.96;43.52
44144;BME280;68165;51.920;4.492;2023-04-26T10:28:01;67538.59;;;15.14;42.89
44144;BME280;68165;51.920;4.492;2023-04-26T10:30:28;67551.06;;;15.28;42.34
44144;BME280;68165;51.920;4.492;2023-04-26T10:35:23;67561.16;;;15.37;41.70
44144;BME280;68165;51.920;4.492;2023-04-26T10:40:30;67563.00;;;15.41;40.94
44144;BME280;68165;51.920;4.492;2023-04-26T10:45:38;67603.34;;;15.77;40.28
44144;BME280;68165;51.920;4.492;2023-04-26T10:48:20;67600.38;;;15.72;39.59
44144;BME280;68165;51.920;4.492;2023-04-26T10:53:29;67651.38;;;16.18;38.80
44144;BME280;68165;51.920;4.492;2023-04-26T10:55:54;67686.28;;;16.52;38.33
44144;BME280;68165;51.920;4.492;2023-04-26T10:58:31;67721.63;;;16.84;37.67
44144;BME280;68165;51.920;4.492;2023-04-26T11:03:29;67726.50;;;16.86;37.18
44144;BME280;68165;51.920;4.492;2023-04-26T11:05:55;67725.97;;;16.86;37.02
44144;BME280;68165;51.920;4.492;2023-04-26T11:08:27;67714.34;;;16.78;37.00
44144;BME280;68165;51.920;4.492;2023-04-26T11:11:15;67705.34;;;16.69;37.06
44144;BME280;68165;51.920;4.492;2023-04-26T11:13:41;67686.84;;;16.53;37.03
44144;BME280;68165;51.920;4.492;2023-04-26T11:16:09;67671.13;;;16.39;36.53
44144;BME280;68165;51.920;4.492;2023-04-26T11:18:36;67657.53;;;16.24;37.13
44144;BME280;68165;51.920;4.492;2023-04-26T11:21:04;67645.34;;;16.15;37.55
44144;BME280;68165;51.920;4.492;2023-04-26T11:23:30;67643.13;;;16.13;37.49
44144;BME280;68165;51.920;4.492;2023-04-26T11:25:59;67631.38;;;16.03;37.32
44144;BME280;68165;51.920;4.492;2023-04-26T11:28:29;67617.59;;;15.85;37.30
44144;BME280;68165;51.920;4.492;2023-04-26T11:30:55;67609.66;;;15.85;37.47
44144;BME280;68165;51.920;4.492;2023-04-26T11:33:22;67638.06;;;16.09;37.20
44144;BME280;68165;51.920;4.492;2023-04-26T11:35:51;67657.16;;;16.26;36.64
44144;BME280;68165;51.920;4.492;2023-04-26T11:38:25;67672.25;;;16.40;36.13
44144;BME280;68165;51.920;4.492;2023-04-26T11:40:56;67671.56;;;16.37;36.10
44144;BME280;68165;51.920;4.492;2023-04-26T11:43:29;67676.19;;;16.43;35.88
44144;BME280;68165;51.920;4.492;2023-04-26T11:45:57;67695.28;;;16.60;35.85
44144;BME280;68165;51.920;4.492;2023-04-26T11:48:24;67703.13;;;16.67;35.59
44144;BME280;68165;51.920;4.492;2023-04-26T11:50:50;67702.97;;;16.65;35.67
44144;BME280;68165;51.920;4.492;2023-04-26T11:53:16;67690.91;;;16.59;35.98
44144;BME280;68165;51.920;4.492;2023-04-26T11:55:41;67692.84;;;16.56;35.91
44144;BME280;68165;51.920;4.492;2023-04-26T11:58:12;67681.78;;;16.48;36.26
44144;BME280;68165;51.920;4.492;2023-04-26T12:00:55;67671.13;;;16.39;36.53
44144;BME280;68165;51.920;4.492;2023-04-26T12:03:22;67657.16;;;16.26;36.78
44144;BME280;68165;51.920;4.492;2023-04-26T12:05:53;67644.25;;;16.14;36.87
44144;BME280;68165;51.920;4.492;2023-04-26T12:08:25;67640.72;;;16.09;36.98
44144;BME280;68165;51.920;4.492;2023-04-26T12:10:51;67634.31;;;16.08;36.77
44144;BME280;68165;51.920;4.492;2023-04-26T12:13:18;67636.81;;;16.05;36.90
44144;BME280;68165;51.920;4.492;2023-04-26T12:15:44;67638.63;;;16.09;37.00
44144;BME280;68165;51.920;4.492;2023-04-26T12:18:10;67626.88;;;15.99;36.85
44144;BME280;68165;51.920;4.492;2023-04-26T12:20:39;67625.75;;;15.98;37.33
44144;BME280;68165;51.920;4.492;2023-04-26T12:23:05;67629.94;;;15.97;36.77
44144;BME280;68165;51.920;4.492;2023-04-26T12:25:33;67644.09;;;16.12;36.64
44144;BME280;68165;51.920;4.492;2023-04-26T12:27:58;67659.13;;;16.32;36.22
44144;BME280;68165;51.920;4.492;2023-04-26T12:30:26;67691.00;;;16.52;35.59
44144;BME280;68165;51.920;4.492;2023-04-26T12:32:51;67691.31;;;16.57;35.45
44144;BME280;68165;51.920;4.492;2023-04-26T12:35:17;67690.59;;;16.54;35.04
44144;BME280;68165;51.920;4.492;2023-04-26T12:37:43;67666.66;;;16.34;34.72
44144;BME280;68165;51.920;4.492;2023-04-26T12:40:09;67631.38;;;16.03;35.10
44144;BME280;68165;51.920;4.492;2023-04-26T12:42:34;67612.28;;;15.85;35.50
44144;BME280;68165;51.920;4.492;2023-04-26T12:45:00;67596.63;;;15.71;36.00
44144;BME280;68165;51.920;4.492;2023-04-26T12:47:25;67582.63;;;15.59;36.66
44144;BME280;68165;51.920;4.492;2023-04-26T12:49:50;67566.34;;;15.44;36.69
44144;BME280;68165;51.920;4.492;2023-04-26T12:52:16;67555.72;;;15.34;37.08
44144;BME280;68165;51.920;4.492;2023-04-26T12:54:41;67547.56;;;15.22;37.11
44144;BME280;68165;51.920;4.492;2023-04-26T12:57:07;67522.34;;;14.99;36.98
44144;BME280;68165;51.920;4.492;2023-04-26T12:59:33;67499.00;;;14.81;37.07
44144;BME280;68165;51.920;4.492;2023-04-26T13:01:58;67501.81;;;14.83;37.25
44144;BME280;68165;51.920;4.492;2023-04-26T13:04:23;67509.25;;;14.92;37.10
44144;BME280;68165;51.920;4.492;2023-04-26T13:06:49;67536.13;;;15.17;36.36
44144;BME280;68165;51.920;4.492;2023-04-26T13:09:14;67556.84;;;15.35;36.08
44144;BME280;68165;51.920;4.492;2023-04-26T13:11:40;67566.03;;;15.39;35.39
44144;BME280;68165;51.920;4.492;2023-04-26T13:14:05;67553.16;;;15.27;34.92
44144;BME280;68165;51.920;4.492;2023-04-26T13:16:34;67563.81;;;15.37;35.18